createdAt,value
2018-07-22T00:01:51.197Z,20.70
2018-07-22T00:04:19.520Z,20.70
2018-07-22T00:06:47.832Z,20.50
2018-07-22T00:09:16.188Z,20.60
2018-07-22T00:11:44.619Z,20.50
2018-07-22T00:14:12.958Z,20.50
2018-07-22T00:16:41.256Z,20.50
2018-07-22T00:19:10.213Z,20.40
2018-07-22T00:21:38.556Z,20.40
2018-07-22T00:24:06.940Z,20.40
2018-07-22T00:26:35.287Z,20.30
2018-07-22T00:29:03.653Z,20.30
2018-07-22T00:31:32.017Z,20.30
2018-07-22T00:34:00.323Z,20.30
2018-07-22T00:36:28.661Z,20.20
2018-07-22T00:38:56.983Z,20.10
2018-07-22T00:41:25.315Z,20.10
2018-07-22T00:43:53.632Z,20.10
2018-07-22T00:46:21.940Z,20.10
2018-07-22T00:48:50.258Z,20.00
2018-07-22T00:51:18.561Z,20.00
2018-07-22T00:53:46.901Z,19.90
2018-07-22T00:56:15.185Z,19.90
2018-07-22T00:58:43.538Z,19.90
2018-07-22T01:01:11.855Z,19.90
2018-07-22T01:03:40.164Z,19.90
2018-07-22T01:06:08.468Z,19.90
2018-07-22T01:08:36.815Z,19.90
2018-07-22T01:11:05.174Z,19.90
2018-07-22T01:13:33.483Z,19.90
2018-07-22T01:16:01.813Z,19.90
2018-07-22T01:18:30.721Z,19.80
2018-07-22T01:20:59.057Z,19.80
2018-07-22T01:23:27.394Z,19.80
2018-07-22T01:25:55.708Z,19.80
2018-07-22T01:28:24.156Z,19.80
2018-07-22T01:30:52.476Z,19.70
2018-07-22T01:33:20.786Z,19.70
2018-07-22T01:35:49.072Z,19.70
2018-07-22T01:38:17.396Z,19.60
2018-07-22T01:40:45.702Z,19.60
2018-07-22T01:43:14.055Z,19.50
2018-07-22T01:45:42.390Z,19.40
2018-07-22T01:48:10.699Z,19.30
2018-07-22T01:50:39.008Z,19.30
2018-07-22T01:53:07.359Z,19.30
2018-07-22T01:55:35.682Z,19.30
2018-07-22T01:58:04.104Z,19.20
2018-07-22T02:00:32.436Z,19.20
2018-07-22T02:03:00.735Z,19.20
2018-07-22T02:05:29.856Z,19.10
2018-07-22T02:07:58.173Z,19.20
2018-07-22T02:10:26.488Z,19.20
2018-07-22T02:12:54.792Z,19.10
2018-07-22T02:15:23.155Z,19.10
2018-07-22T02:17:51.503Z,19.00
2018-07-22T02:20:19.832Z,19.00
2018-07-22T02:22:48.168Z,19.00
2018-07-22T02:25:16.515Z,19.00
2018-07-22T02:27:44.838Z,19.00
2018-07-22T02:30:13.180Z,19.00
2018-07-22T02:32:41.505Z,18.90
2018-07-22T02:35:09.823Z,18.90
2018-07-22T02:37:38.435Z,18.90
2018-07-22T02:40:07.172Z,18.90
2018-07-22T02:42:35.498Z,18.90
2018-07-22T02:45:04.146Z,18.80
2018-07-22T02:47:32.459Z,18.80
2018-07-22T02:50:00.768Z,18.80
2018-07-22T02:52:29.077Z,18.80
2018-07-22T02:54:57.391Z,18.70
2018-07-22T02:57:25.708Z,18.70
2018-07-22T02:59:54.029Z,18.60
2018-07-22T03:02:22.324Z,18.60
2018-07-22T03:04:50.640Z,18.60
2018-07-22T03:07:18.987Z,18.50
2018-07-22T03:09:47.315Z,18.50
2018-07-22T03:12:15.631Z,18.50
2018-07-22T03:14:43.948Z,18.40
2018-07-22T03:17:12.914Z,18.40
2018-07-22T03:19:41.456Z,18.40
2018-07-22T03:22:09.773Z,18.50
2018-07-22T03:24:38.088Z,18.60
2018-07-22T03:27:06.592Z,18.50
2018-07-22T03:29:34.934Z,18.50
2018-07-22T03:32:03.248Z,18.40
2018-07-22T03:34:31.584Z,18.30
2018-07-22T03:36:59.977Z,18.00
2018-07-22T03:39:28.301Z,17.80
2018-07-22T03:41:56.613Z,17.80
2018-07-22T03:44:24.921Z,17.70
2018-07-22T03:46:53.231Z,17.60
2018-07-22T03:49:21.543Z,17.60
2018-07-22T03:51:49.883Z,17.50
2018-07-22T03:54:18.248Z,17.50
2018-07-22T03:56:47.579Z,17.50
2018-07-22T03:59:15.915Z,17.40
2018-07-22T04:01:44.231Z,17.30
2018-07-22T04:04:12.902Z,17.40
2018-07-22T04:06:41.207Z,17.40
2018-07-22T04:09:10.969Z,17.30
2018-07-22T04:11:40.145Z,17.30
2018-07-22T04:14:08.506Z,17.40
2018-07-22T04:16:36.880Z,17.40
2018-07-22T04:19:05.207Z,17.40
2018-07-22T04:21:33.604Z,17.40
2018-07-22T04:24:01.828Z,17.30
2018-07-22T04:26:30.148Z,17.30
2018-07-22T04:28:58.443Z,17.30
2018-07-22T04:31:26.747Z,17.30
2018-07-22T04:33:55.835Z,17.20
2018-07-22T04:36:24.193Z,17.20
2018-07-22T04:38:53.157Z,17.10
2018-07-22T04:41:21.472Z,17.10
2018-07-22T04:43:49.783Z,17.10
2018-07-22T04:46:18.139Z,17.10
2018-07-22T04:48:46.686Z,17.30
2018-07-22T04:51:15.022Z,17.40
2018-07-22T04:53:43.340Z,17.30
2018-07-22T04:56:11.672Z,17.20
2018-07-22T04:58:40.056Z,17.10
2018-07-22T05:01:08.392Z,17.10
2018-07-22T05:03:36.716Z,17.10
2018-07-22T05:06:05.064Z,17.10
2018-07-22T05:08:33.367Z,17.10
2018-07-22T05:11:01.695Z,17.00
2018-07-22T05:13:29.999Z,17.10
2018-07-22T05:15:58.432Z,17.00
2018-07-22T05:18:26.784Z,16.90
2018-07-22T05:20:55.208Z,16.80
2018-07-22T05:23:23.629Z,16.90
2018-07-22T05:25:52.012Z,16.90
2018-07-22T05:28:20.381Z,17.00
2018-07-22T05:30:48.760Z,17.10
2018-07-22T05:33:17.147Z,17.00
2018-07-22T05:35:45.554Z,17.00
2018-07-22T05:40:42.451Z,17.00
2018-07-22T05:43:10.789Z,17.10
2018-07-22T05:45:39.216Z,17.20
2018-07-22T05:48:07.648Z,17.20
2018-07-22T05:50:36.031Z,17.20
2018-07-22T05:53:04.368Z,17.30
2018-07-22T05:55:33.624Z,17.40
2018-07-22T05:58:01.982Z,17.50
2018-07-22T06:00:30.409Z,17.50
2018-07-22T06:02:58.851Z,17.70
2018-07-22T06:07:55.280Z,17.80
2018-07-22T06:10:23.596Z,17.90
2018-07-22T06:12:51.972Z,17.80
2018-07-22T06:15:20.445Z,17.90
2018-07-22T06:17:48.827Z,17.90
2018-07-22T06:20:18.128Z,17.90
2018-07-22T06:22:46.471Z,18.00
2018-07-22T06:25:14.929Z,18.00
2018-07-22T06:27:43.244Z,17.90
2018-07-22T06:30:13.359Z,18.00
2018-07-22T06:32:41.685Z,18.00
2018-07-22T06:35:10.255Z,18.00
2018-07-22T06:37:38.736Z,18.10
2018-07-22T06:40:07.175Z,18.20
2018-07-22T06:42:35.572Z,18.20
2018-07-22T06:45:04.760Z,18.20
2018-07-22T06:47:33.123Z,18.20
2018-07-22T06:50:01.552Z,18.30
2018-07-22T06:52:29.891Z,18.30
2018-07-22T06:54:58.224Z,18.40
2018-07-22T06:57:26.558Z,18.40
2018-07-22T06:59:55.017Z,18.40
2018-07-22T07:02:23.387Z,18.50
2018-07-22T07:04:52.390Z,18.60
2018-07-22T07:07:21.175Z,18.70
2018-07-22T07:09:49.608Z,18.70
2018-07-22T07:12:17.979Z,18.60
2018-07-22T07:14:46.315Z,18.70
2018-07-22T07:17:14.686Z,18.80
2018-07-22T07:19:46.596Z,19.10
2018-07-22T07:22:14.895Z,19.30
2018-07-22T07:24:43.312Z,19.50
2018-07-22T07:27:11.708Z,19.70
2018-07-22T07:29:40.119Z,19.80
2018-07-22T07:32:08.490Z,19.90
2018-07-22T07:34:36.848Z,19.80
2018-07-22T07:37:05.667Z,19.90
2018-07-22T07:39:33.979Z,19.80
2018-07-22T07:42:02.387Z,19.80
2018-07-22T07:44:30.689Z,19.80
2018-07-22T07:46:59.493Z,19.80
2018-07-22T07:49:27.875Z,19.80
2018-07-22T07:51:56.204Z,19.80
2018-07-22T07:54:24.508Z,19.80
2018-07-22T07:56:52.824Z,19.90
2018-07-22T07:59:21.163Z,20.10
2018-07-22T08:01:49.500Z,20.20
2018-07-22T08:04:17.824Z,20.40
2018-07-22T08:06:46.171Z,20.40
2018-07-22T08:09:14.973Z,20.60
2018-07-22T08:11:43.406Z,20.80
2018-07-22T08:14:11.828Z,20.80
2018-07-22T08:16:40.155Z,20.90
2018-07-22T08:19:08.516Z,21.00
2018-07-22T08:21:36.926Z,21.50
2018-07-22T08:24:05.200Z,21.70
2018-07-22T08:26:33.555Z,21.80
2018-07-22T08:29:21.987Z,22.00
2018-07-22T08:31:50.476Z,22.20
2018-07-22T08:34:18.932Z,22.50
2018-07-22T08:36:47.888Z,22.50
2018-07-22T08:39:17.226Z,22.40
2018-07-22T08:41:45.583Z,22.50
2018-07-22T08:44:13.948Z,22.60
2018-07-22T08:46:42.815Z,22.70
2018-07-22T08:49:11.109Z,22.60
2018-07-22T08:51:39.484Z,22.60
2018-07-22T08:54:07.815Z,22.80
2018-07-22T08:56:36.176Z,22.80
2018-07-22T08:59:06.317Z,23.10
2018-07-22T09:01:35.003Z,23.20
2018-07-22T09:04:03.635Z,23.40
2018-07-22T09:06:32.092Z,23.40
2018-07-22T09:09:01.697Z,23.30
2018-07-22T09:11:30.138Z,23.50
2018-07-22T09:13:58.648Z,23.30
2018-07-22T09:16:27.187Z,23.40
2018-07-22T09:18:56.956Z,23.50
2018-07-22T09:21:27.470Z,23.70
2018-07-22T09:23:59.289Z,23.70
2018-07-22T09:26:30.780Z,23.90
2018-07-22T09:29:00.493Z,24.00
2018-07-22T09:31:29.378Z,24.00
2018-07-22T09:33:57.927Z,24.20
2018-07-22T09:36:26.480Z,24.10
2018-07-22T09:38:55.514Z,24.20
2018-07-22T09:41:24.516Z,24.40
2018-07-22T09:43:53.031Z,25.10
2018-07-22T09:46:23.007Z,25.10
2018-07-22T09:48:51.931Z,25.50
2018-07-22T09:51:21.028Z,25.50
2018-07-22T09:53:49.751Z,25.40
2018-07-22T09:56:18.298Z,25.20
2018-07-22T09:58:47.063Z,24.90
2018-07-22T10:01:16.236Z,24.90
2018-07-22T10:03:44.668Z,24.80
2018-07-22T10:06:16.745Z,24.80
2018-07-22T10:08:49.886Z,25.00
2018-07-22T10:11:26.878Z,24.90
2018-07-22T10:16:35.180Z,24.90
2018-07-22T10:19:03.704Z,25.10
2018-07-22T10:21:32.001Z,25.20
2018-07-22T10:24:01.320Z,25.00
2018-07-22T10:26:29.629Z,25.60
2018-07-22T10:28:58.080Z,25.80
2018-07-22T10:31:26.424Z,25.90
2018-07-22T10:33:54.838Z,25.70
2018-07-22T10:36:23.328Z,25.70
2018-07-22T10:38:51.655Z,25.50
2018-07-22T10:41:20.025Z,25.70
2018-07-22T10:43:48.322Z,25.80
2018-07-22T10:46:16.644Z,25.90
2018-07-22T10:48:44.952Z,26.20
2018-07-22T10:51:13.323Z,26.50
2018-07-22T10:53:41.691Z,26.50
2018-07-22T10:56:10.123Z,26.70
2018-07-22T10:58:38.388Z,26.60
2018-07-22T11:01:08.838Z,26.50
2018-07-22T11:03:37.209Z,26.50
2018-07-22T11:06:05.573Z,26.50
2018-07-22T11:08:33.916Z,26.90
2018-07-22T11:11:02.219Z,27.00
2018-07-22T11:13:30.531Z,27.80
2018-07-22T11:15:58.863Z,27.30
2018-07-22T11:18:27.171Z,27.50
2018-07-22T11:20:55.499Z,27.60
2018-07-22T11:23:23.791Z,27.30
2018-07-22T11:25:52.124Z,27.20
2018-07-22T11:28:20.428Z,27.40
2018-07-22T11:30:48.752Z,27.60
2018-07-22T11:33:17.063Z,27.40
2018-07-22T11:35:46.024Z,27.50
2018-07-22T11:38:14.380Z,28.50
2018-07-22T11:40:42.838Z,28.50
2018-07-22T11:43:11.978Z,28.10
2018-07-22T11:45:41.377Z,27.90
2018-07-22T11:48:09.695Z,29.10
2018-07-22T11:50:38.053Z,29.20
2018-07-22T11:53:06.375Z,29.10
2018-07-22T11:55:34.668Z,29.00
2018-07-22T11:58:03.046Z,28.60
2018-07-22T12:00:31.407Z,28.20
2018-07-22T12:02:59.769Z,28.30
2018-07-22T12:05:28.084Z,28.20
2018-07-22T12:07:56.396Z,28.40
2018-07-22T12:10:24.702Z,28.50
2018-07-22T12:12:53.331Z,28.60
2018-07-22T12:15:21.625Z,28.40
2018-07-22T12:17:50.608Z,28.70
2018-07-22T12:20:18.920Z,29.10
2018-07-22T12:22:47.257Z,29.20
2018-07-22T12:25:15.871Z,29.90
2018-07-22T12:27:44.166Z,30.00
2018-07-22T12:30:12.503Z,29.40
2018-07-22T12:32:40.808Z,29.30
2018-07-22T12:35:09.123Z,29.80
2018-07-22T12:37:37.447Z,30.00
2018-07-22T12:40:05.908Z,30.80
2018-07-22T12:42:34.227Z,30.40
2018-07-22T12:45:03.428Z,29.80
2018-07-22T12:47:31.724Z,30.00
2018-07-22T12:50:00.021Z,30.00
2018-07-22T12:52:28.324Z,29.70
2018-07-22T12:54:56.713Z,29.50
2018-07-22T12:57:25.036Z,29.50
2018-07-22T12:59:53.408Z,29.50
2018-07-22T13:02:21.712Z,30.00
2018-07-22T13:04:50.131Z,31.40
2018-07-22T13:07:18.423Z,31.50
2018-07-22T13:09:46.736Z,30.90
2018-07-22T13:12:15.072Z,29.90
2018-07-22T13:14:43.380Z,29.60
2018-07-22T13:17:11.911Z,29.80
2018-07-22T13:19:40.283Z,30.50
2018-07-22T13:22:08.591Z,30.40
2018-07-22T13:24:36.935Z,30.60
2018-07-22T13:27:05.308Z,30.40
2018-07-22T13:29:33.636Z,30.50
2018-07-22T13:32:01.940Z,30.30
2018-07-22T13:34:30.267Z,30.70
2018-07-22T13:36:58.605Z,31.20
2018-07-22T13:39:26.911Z,31.30
2018-07-22T13:41:55.592Z,31.00
2018-07-22T13:44:24.563Z,30.80
2018-07-22T13:46:52.921Z,30.70
2018-07-22T13:49:21.223Z,30.60
2018-07-22T13:51:49.639Z,31.40
2018-07-22T13:54:17.979Z,31.90
2018-07-22T13:56:46.317Z,32.10
2018-07-22T13:59:15.356Z,31.40
2018-07-22T14:01:43.644Z,31.10
2018-07-22T14:04:11.963Z,31.30
2018-07-22T14:06:40.261Z,31.60
2018-07-22T14:09:10.199Z,31.90
2018-07-22T14:11:38.500Z,32.90
2018-07-22T14:14:07.680Z,32.20
2018-07-22T14:16:36.203Z,31.80
2018-07-22T14:19:05.271Z,31.80
2018-07-22T14:21:33.786Z,32.10
2018-07-22T14:24:02.412Z,31.80
2018-07-22T14:26:30.700Z,31.80
2018-07-22T14:28:59.008Z,32.20
2018-07-22T14:31:27.345Z,33.40
2018-07-22T14:33:55.640Z,34.20
2018-07-22T14:36:23.996Z,34.50
2018-07-22T14:38:52.296Z,33.30
2018-07-22T14:41:20.603Z,33.50
2018-07-22T14:43:48.912Z,32.90
2018-07-22T14:46:17.232Z,32.50
2018-07-22T14:48:45.540Z,32.40
2018-07-22T14:51:14.496Z,32.20
2018-07-22T14:53:42.831Z,32.20
2018-07-22T14:56:11.130Z,33.00
2018-07-22T14:58:40.232Z,33.80
2018-07-22T15:01:12.056Z,33.90
2018-07-22T15:03:41.864Z,34.40
2018-07-22T15:06:10.191Z,33.70
2018-07-22T15:08:38.745Z,33.70
2018-07-22T15:11:07.121Z,33.10
2018-07-22T15:13:35.433Z,32.70
2018-07-22T15:16:03.872Z,32.90
2018-07-22T15:18:32.276Z,32.90
2018-07-22T15:21:00.584Z,32.70
2018-07-22T15:23:28.943Z,32.80
2018-07-22T15:25:57.915Z,33.00
2018-07-22T15:28:26.230Z,32.70
2018-07-22T15:30:54.555Z,32.30
2018-07-22T15:33:22.880Z,31.60
2018-07-22T15:35:51.425Z,31.00
2018-07-22T15:38:19.744Z,30.60
2018-07-22T15:40:48.167Z,30.40
2018-07-22T15:43:16.483Z,29.80
2018-07-22T15:45:44.868Z,29.50
2018-07-22T15:48:13.235Z,30.10
2018-07-22T15:50:41.550Z,30.40
2018-07-22T15:53:09.856Z,30.70
2018-07-22T15:55:38.540Z,30.50
2018-07-22T15:58:06.628Z,30.60
2018-07-22T16:00:34.952Z,30.70
2018-07-22T16:03:03.349Z,30.70
2018-07-22T16:05:31.663Z,30.50
2018-07-22T16:07:59.963Z,29.60
2018-07-22T16:10:28.268Z,29.20
2018-07-22T16:12:56.571Z,29.10
2018-07-22T16:15:25.205Z,28.90
2018-07-22T16:17:55.627Z,28.60
2018-07-22T16:20:23.918Z,29.10
2018-07-22T16:22:52.232Z,29.30
2018-07-22T16:25:20.536Z,29.60
2018-07-22T16:27:49.656Z,29.50
2018-07-22T16:30:17.996Z,30.00
2018-07-22T16:32:46.307Z,29.80
2018-07-22T16:35:14.601Z,29.50
2018-07-22T16:37:42.943Z,29.20
2018-07-22T16:40:11.267Z,28.90
2018-07-22T16:42:39.904Z,28.60
2018-07-22T16:45:08.203Z,28.50
2018-07-22T16:47:36.543Z,28.40
2018-07-22T16:50:05.804Z,28.30
2018-07-22T16:52:34.839Z,28.30
2018-07-22T16:55:03.807Z,28.10
2018-07-22T16:57:32.867Z,27.90
2018-07-22T17:00:01.171Z,27.90
2018-07-22T17:02:29.496Z,27.90
2018-07-22T17:04:57.812Z,27.90
2018-07-22T17:07:26.160Z,27.60
2018-07-22T17:09:54.480Z,27.60
2018-07-22T17:12:22.781Z,27.50
2018-07-22T17:14:51.148Z,27.50
2018-07-22T17:17:19.448Z,27.50
2018-07-22T17:19:47.752Z,27.40
2018-07-22T17:22:16.653Z,27.40
2018-07-22T17:24:45.083Z,27.50
2018-07-22T17:27:13.380Z,27.40
2018-07-22T17:29:41.688Z,27.30
2018-07-22T17:32:10.015Z,27.30
2018-07-22T17:34:38.312Z,27.20
2018-07-22T17:37:06.631Z,27.20
2018-07-22T17:39:34.935Z,27.20
2018-07-22T17:42:03.251Z,27.00
2018-07-22T17:44:31.561Z,27.10
2018-07-22T17:46:59.889Z,26.90
2018-07-22T17:49:28.468Z,27.00
2018-07-22T17:51:56.795Z,27.00
2018-07-22T17:54:25.113Z,27.00
2018-07-22T17:56:53.430Z,27.00
2018-07-22T17:59:22.065Z,27.00
2018-07-22T18:01:50.367Z,27.00
2018-07-22T18:04:18.683Z,27.10
2018-07-22T18:06:46.995Z,27.20
2018-07-22T18:09:15.299Z,27.30
2018-07-22T18:11:44.395Z,27.40
2018-07-22T18:14:13.435Z,27.50
2018-07-22T18:16:41.740Z,27.50
2018-07-22T18:19:10.075Z,27.60
2018-07-22T18:21:38.526Z,27.80
2018-07-22T18:24:06.732Z,27.90
2018-07-22T18:26:35.542Z,27.90
2018-07-22T18:29:03.979Z,28.10
2018-07-22T18:31:33.133Z,28.00
2018-07-22T18:34:01.440Z,28.20
2018-07-22T18:36:29.763Z,28.20
2018-07-22T18:38:58.708Z,28.40
2018-07-22T18:41:27.039Z,28.40
2018-07-22T18:43:55.355Z,28.20
2018-07-22T18:46:23.670Z,28.10
2018-07-22T18:48:52.008Z,28.00
2018-07-22T18:51:20.302Z,27.90
2018-07-22T18:53:48.612Z,28.00
2018-07-22T18:56:16.932Z,27.90
2018-07-22T18:58:45.235Z,27.80
2018-07-22T19:01:13.533Z,27.60
2018-07-22T19:03:41.851Z,27.40
2018-07-22T19:06:10.151Z,27.10
2018-07-22T19:08:38.465Z,27.10
2018-07-22T19:11:06.916Z,27.00
2018-07-22T19:13:35.221Z,26.80
2018-07-22T19:16:03.539Z,26.60
2018-07-22T19:18:31.856Z,26.50
2018-07-22T19:21:00.204Z,26.20
2018-07-22T19:23:28.532Z,26.00
2018-07-22T19:25:56.844Z,25.80
2018-07-22T19:28:25.156Z,25.60
2018-07-22T19:30:53.481Z,25.40
2018-07-22T19:33:21.792Z,25.30
2018-07-22T19:35:51.111Z,25.10
2018-07-22T19:38:19.427Z,24.90
2018-07-22T19:40:47.772Z,24.90
2018-07-22T19:43:16.079Z,24.70
2018-07-22T19:45:44.411Z,24.70
2018-07-22T19:48:12.721Z,24.70
2018-07-22T19:50:41.051Z,24.70
2018-07-22T19:53:09.368Z,24.60
2018-07-22T19:55:37.667Z,24.50
2018-07-22T19:58:06.049Z,24.40
2018-07-22T20:00:34.645Z,24.20
2018-07-22T20:03:02.951Z,24.00
2018-07-22T20:05:31.247Z,23.70
2018-07-22T20:07:59.576Z,23.40
2018-07-22T20:10:27.912Z,23.20
2018-07-22T20:12:57.080Z,23.00
2018-07-22T20:15:25.502Z,22.80
2018-07-22T20:17:53.886Z,22.70
2018-07-22T20:20:22.236Z,22.70
